createdAt,value
2022-10-21T00:00:16.476Z,0.00
2022-10-21T00:01:16.507Z,0.00
2022-10-21T00:02:16.439Z,0.00
2022-10-21T00:03:16.378Z,0.00
2022-10-21T00:04:16.348Z,0.00
2022-10-21T00:05:16.399Z,0.00
2022-10-21T00:06:16.283Z,0.00
2022-10-21T00:07:16.312Z,0.00
2022-10-21T00:08:16.233Z,0.00
2022-10-21T00:09:16.209Z,0.00
2022-10-21T00:10:16.145Z,0.00
2022-10-21T00:11:16.111Z,0.00
2022-10-21T00:12:16.084Z,0.00
2022-10-21T00:13:16.109Z,0.00
2022-10-21T00:14:16.057Z,0.00
2022-10-21T00:15:15.991Z,0.00
2022-10-21T00:16:15.960Z,0.00
2022-10-21T00:17:15.911Z,0.00
2022-10-21T00:18:15.876Z,0.00
2022-10-21T00:19:15.910Z,0.00
2022-10-21T00:20:15.881Z,0.00
2022-10-21T00:21:15.842Z,0.00
2022-10-21T00:22:15.745Z,0.00
2022-10-21T00:23:15.716Z,0.00
2022-10-21T00:24:15.677Z,0.00
2022-10-21T00:25:15.682Z,0.00
2022-10-21T00:26:15.679Z,0.00
2022-10-21T00:27:15.596Z,0.00
2022-10-21T00:28:15.571Z,0.00
2022-10-21T00:29:15.581Z,0.00
2022-10-21T00:30:15.478Z,0.00
2022-10-21T00:31:15.459Z,0.00
2022-10-21T00:32:15.513Z,0.00
2022-10-21T00:33:15.375Z,0.00
2022-10-21T00:34:15.343Z,0.00
2022-10-21T00:35:15.317Z,0.00
2022-10-21T00:36:15.567Z,0.00
2022-10-21T00:37:15.328Z,0.00
2022-10-21T00:38:15.243Z,0.00
2022-10-21T00:39:15.192Z,0.00
2022-10-21T00:40:15.160Z,0.00
2022-10-21T00:41:15.121Z,0.00
2022-10-21T00:42:15.126Z,0.00
2022-10-21T00:43:15.119Z,0.00
2022-10-21T00:44:15.023Z,0.00
2022-10-21T00:45:14.976Z,0.00
2022-10-21T00:46:14.958Z,0.00
2022-10-21T00:47:14.937Z,0.00
2022-10-21T00:48:14.890Z,0.00
2022-10-21T00:49:14.908Z,0.00
2022-10-21T00:50:14.828Z,0.00
2022-10-21T00:51:14.786Z,0.00
2022-10-21T00:52:14.773Z,0.00
2022-10-21T00:53:14.774Z,0.00
2022-10-21T00:54:14.734Z,0.00
2022-10-21T00:55:14.644Z,0.00
2022-10-21T00:56:16.503Z,0.00
2022-10-21T00:57:14.583Z,0.00
2022-10-21T00:58:14.580Z,0.00
2022-10-21T00:59:14.598Z,0.00
2022-10-21T01:00:14.541Z,0.00
2022-10-21T01:01:17.903Z,0.00
2022-10-21T01:02:14.494Z,0.00
2022-10-21T01:03:14.387Z,0.00
2022-10-21T01:04:14.377Z,0.00
2022-10-21T01:05:14.314Z,0.00
2022-10-21T01:06:14.357Z,0.00
2022-10-21T01:07:14.258Z,0.00
2022-10-21T01:08:14.972Z,0.00
2022-10-21T01:09:14.234Z,0.00
2022-10-21T01:10:14.146Z,0.00
2022-10-21T01:11:14.115Z,0.00
2022-10-21T01:12:14.150Z,0.00
2022-10-21T01:13:14.052Z,0.00
2022-10-21T01:14:14.016Z,0.00
2022-10-21T01:15:14.005Z,0.00
2022-10-21T01:16:13.955Z,0.00
2022-10-21T01:17:26.274Z,0.00
2022-10-21T01:18:13.901Z,0.00
2022-10-21T01:19:13.933Z,0.00
2022-10-21T01:20:13.830Z,0.00
2022-10-21T01:21:13.799Z,0.00
2022-10-21T01:22:13.748Z,0.00
2022-10-21T01:23:13.730Z,0.00
2022-10-21T01:24:13.693Z,0.00
2022-10-21T01:25:13.824Z,0.00
2022-10-21T01:26:13.646Z,0.00
2022-10-21T01:27:13.603Z,0.00
2022-10-21T01:28:13.576Z,0.00
2022-10-21T01:29:13.522Z,0.00
2022-10-21T01:30:13.571Z,0.00
2022-10-21T01:31:13.477Z,0.00
2022-10-21T01:32:13.450Z,0.00
2022-10-21T01:33:13.403Z,0.00
2022-10-21T01:34:13.361Z,0.00
2022-10-21T01:35:13.464Z,0.00
2022-10-21T01:36:13.349Z,0.00
2022-10-21T01:37:13.943Z,0.00
2022-10-21T01:38:13.287Z,0.00
2022-10-21T01:39:13.190Z,0.00
2022-10-21T01:40:13.151Z,0.00
2022-10-21T01:41:13.176Z,0.00
2022-10-21T01:42:13.119Z,0.00
2022-10-21T01:43:13.061Z,0.00
2022-10-21T01:44:13.031Z,0.00
2022-10-21T01:45:13.060Z,0.00
2022-10-21T01:46:12.966Z,0.00
2022-10-21T01:47:12.928Z,0.00
2022-10-21T01:48:12.906Z,0.00
2022-10-21T01:49:12.861Z,0.00
2022-10-21T01:50:12.841Z,0.00
2022-10-21T01:51:12.950Z,0.00
2022-10-21T01:52:12.791Z,0.00
2022-10-21T01:53:12.752Z,0.00
2022-10-21T01:54:12.704Z,0.00
2022-10-21T01:55:12.659Z,0.00
2022-10-21T01:56:12.691Z,0.00
2022-10-21T01:57:12.609Z,0.00
2022-10-21T01:58:12.569Z,0.00
2022-10-21T01:59:12.560Z,0.00
2022-10-21T02:00:12.548Z,0.00
2022-10-21T02:01:12.603Z,0.00
2022-10-21T02:02:12.443Z,0.00
2022-10-21T02:03:12.418Z,0.00
2022-10-21T02:04:12.370Z,0.00
2022-10-21T02:05:12.328Z,0.00
2022-10-21T02:06:12.389Z,0.00
2022-10-21T02:07:12.348Z,0.00
2022-10-21T02:08:12.245Z,0.00
2022-10-21T02:09:12.355Z,0.00
2022-10-21T02:10:13.320Z,0.00
2022-10-21T02:11:12.249Z,0.00
2022-10-21T02:12:12.834Z,0.00
2022-10-21T02:13:12.971Z,0.00
2022-10-21T02:14:12.844Z,0.00
2022-10-21T02:15:12.822Z,0.00
2022-10-21T02:16:12.000Z,0.00
2022-10-21T02:17:11.942Z,0.00
2022-10-21T02:18:11.893Z,0.00
2022-10-21T02:19:12.461Z,0.00
2022-10-21T02:20:11.863Z,0.00
2022-10-21T02:21:11.806Z,0.00
2022-10-21T02:22:11.795Z,0.00
2022-10-21T02:23:11.732Z,0.00
2022-10-21T02:24:11.697Z,0.00
2022-10-21T02:25:11.800Z,0.00
2022-10-21T02:26:11.628Z,0.00
2022-10-21T02:27:11.633Z,0.00
2022-10-21T02:28:11.583Z,0.00
2022-10-21T02:29:11.532Z,0.00
2022-10-21T02:30:11.578Z,0.00
2022-10-21T02:31:11.481Z,0.00
2022-10-21T02:32:11.440Z,0.00
2022-10-21T02:33:11.472Z,0.00
2022-10-21T02:34:11.394Z,0.00
2022-10-21T02:35:11.333Z,0.00
2022-10-21T02:36:11.305Z,0.00
2022-10-21T02:37:11.274Z,0.00
2022-10-21T02:38:11.293Z,0.00
2022-10-21T02:39:11.200Z,0.00
2022-10-21T02:40:11.170Z,0.00
2022-10-21T02:41:11.144Z,0.00
2022-10-21T02:42:11.115Z,0.00
2022-10-21T02:43:11.150Z,0.00
2022-10-21T02:44:11.042Z,0.00
2022-10-21T02:45:11.009Z,0.00
2022-10-21T02:46:10.982Z,0.00
2022-10-21T02:48:10.907Z,0.00
2022-10-21T02:49:10.948Z,0.00
2022-10-21T02:50:10.837Z,0.00
2022-10-21T02:51:10.823Z,0.00
2022-10-21T02:52:10.775Z,0.00
2022-10-21T02:53:10.744Z,0.00
2022-10-21T02:54:10.776Z,0.00
2022-10-21T02:55:10.683Z,0.00
2022-10-21T02:56:10.640Z,0.00
2022-10-21T02:57:10.609Z,0.00
2022-10-21T02:58:10.576Z,0.00
2022-10-21T02:59:10.558Z,0.00
2022-10-21T03:00:10.570Z,0.00
2022-10-21T03:01:10.524Z,0.00
2022-10-21T03:02:10.439Z,0.00
2022-10-21T03:03:10.433Z,0.00
2022-10-21T03:04:10.372Z,0.00
2022-10-21T03:05:10.425Z,0.00
2022-10-21T03:06:10.333Z,0.00
2022-10-21T03:07:10.317Z,0.00
2022-10-21T03:08:10.244Z,0.00
2022-10-21T03:09:10.222Z,0.00
2022-10-21T03:10:10.173Z,0.00
2022-10-21T03:11:10.215Z,0.00
2022-10-21T03:12:10.123Z,0.00
2022-10-21T03:13:10.078Z,0.00
2022-10-21T03:14:10.044Z,0.00
2022-10-21T03:15:10.016Z,0.00
2022-10-21T03:16:10.018Z,0.00
2022-10-21T03:17:10.009Z,0.00
2022-10-21T03:18:09.921Z,0.00
2022-10-21T03:19:09.874Z,0.00
2022-10-21T03:20:09.879Z,0.00
2022-10-21T03:21:09.816Z,0.00
2022-10-21T03:22:09.776Z,0.00
2022-10-21T03:23:09.820Z,0.00
2022-10-21T03:24:15.431Z,0.00
2022-10-21T03:25:09.680Z,0.00
2022-10-21T03:26:11.341Z,0.00
2022-10-21T03:27:09.619Z,0.00
2022-10-21T03:28:09.584Z,0.00
2022-10-21T03:29:09.623Z,0.00
2022-10-21T03:30:09.537Z,0.00
2022-10-21T03:31:09.630Z,0.00
2022-10-21T03:32:09.522Z,0.00
2022-10-21T03:33:09.425Z,0.00
2022-10-21T03:34:09.389Z,0.00
2022-10-21T03:35:09.355Z,0.00
2022-10-21T03:36:09.332Z,0.00
2022-10-21T03:37:09.353Z,0.00
2022-10-21T03:38:09.265Z,0.00
2022-10-21T03:39:09.242Z,0.00
2022-10-21T03:40:12.259Z,0.00
2022-10-21T03:41:09.149Z,0.00
2022-10-21T03:42:09.562Z,0.00
2022-10-21T03:43:09.105Z,0.00
2022-10-21T03:44:09.069Z,0.00
2022-10-21T03:45:09.031Z,0.00
2022-10-21T03:46:08.986Z,0.00
2022-10-21T03:47:09.017Z,0.00
2022-10-21T03:48:08.934Z,0.00
2022-10-21T03:49:15.488Z,0.00
2022-10-21T03:50:12.127Z,0.00
2022-10-21T03:51:08.816Z,0.00
2022-10-21T03:52:08.803Z,0.00
2022-10-21T03:53:18.554Z,0.00
2022-10-21T03:54:08.735Z,0.00
2022-10-21T03:55:08.696Z,0.00
2022-10-21T03:56:08.659Z,0.00
2022-10-21T03:57:08.624Z,0.00
2022-10-21T03:58:08.653Z,0.00
2022-10-21T03:59:08.592Z,0.00
2022-10-21T04:00:08.642Z,0.00
2022-10-21T04:01:08.516Z,0.00
2022-10-21T04:02:08.535Z,0.00
2022-10-21T04:03:08.509Z,0.00
2022-10-21T04:04:08.402Z,0.00
2022-10-21T04:05:08.369Z,0.00
2022-10-21T04:06:08.346Z,0.00
2022-10-21T04:07:08.313Z,0.00
2022-10-21T04:08:08.321Z,0.00
2022-10-21T04:09:08.412Z,0.00
2022-10-21T04:10:08.241Z,0.00
2022-10-21T04:11:08.191Z,0.00
2022-10-21T04:12:08.128Z,0.00
2022-10-21T04:13:08.166Z,0.00
2022-10-21T04:14:11.529Z,0.00
2022-10-21T04:15:08.032Z,0.00
2022-10-21T04:16:08.000Z,0.00
2022-10-21T04:17:08.164Z,0.00
2022-10-21T04:18:07.950Z,0.00
2022-10-21T04:19:07.951Z,0.00
2022-10-21T04:20:07.866Z,0.00
2022-10-21T04:21:07.946Z,0.00
2022-10-21T04:22:07.878Z,0.00
2022-10-21T04:23:07.759Z,0.00
2022-10-21T04:24:07.725Z,0.00
2022-10-21T04:25:07.687Z,0.00
2022-10-21T04:26:07.661Z,0.00
2022-10-21T04:27:07.636Z,0.00
2022-10-21T04:28:07.645Z,0.00
2022-10-21T04:29:07.620Z,0.00
2022-10-21T04:30:07.565Z,0.00
2022-10-21T04:31:07.543Z,0.00
2022-10-21T04:32:07.538Z,0.00
2022-10-21T04:33:07.472Z,0.00
2022-10-21T04:34:07.645Z,0.00
2022-10-21T04:35:08.354Z,0.00
2022-10-21T04:36:07.372Z,0.00
2022-10-21T04:37:07.359Z,0.00
2022-10-21T04:38:07.271Z,0.00
2022-10-21T04:39:07.236Z,0.00
2022-10-21T04:40:07.250Z,0.00
2022-10-21T04:41:07.214Z,0.00
2022-10-21T04:42:07.219Z,0.00
2022-10-21T04:43:07.209Z,0.00
2022-10-21T04:44:07.175Z,0.00
2022-10-21T04:45:07.035Z,0.00
2022-10-21T04:46:08.834Z,0.00
2022-10-21T04:47:06.978Z,0.00
2022-10-21T04:48:07.032Z,0.00
2022-10-21T04:49:07.857Z,0.00
2022-10-21T04:50:06.890Z,0.00
2022-10-21T04:51:06.849Z,0.00
2022-10-21T04:52:06.794Z,0.00
2022-10-21T04:53:06.788Z,0.00
2022-10-21T04:54:06.813Z,0.00
2022-10-21T04:55:06.726Z,0.00
2022-10-21T04:56:06.685Z,0.00
2022-10-21T04:57:06.657Z,0.00
2022-10-21T04:58:06.632Z,0.00
2022-10-21T04:59:06.645Z,0.00
2022-10-21T05:00:06.587Z,0.00
2022-10-21T05:01:06.507Z,0.00
2022-10-21T05:02:06.463Z,0.00
2022-10-21T05:03:06.441Z,0.00
2022-10-21T05:04:06.396Z,0.00
2022-10-21T05:05:06.367Z,0.00
2022-10-21T05:06:06.389Z,0.00
2022-10-21T05:07:06.293Z,0.00
2022-10-21T05:08:11.403Z,0.00
2022-10-21T05:09:06.262Z,0.00
2022-10-21T05:10:06.203Z,0.00
2022-10-21T05:11:06.158Z,0.00
2022-10-21T05:12:06.183Z,0.00
2022-10-21T05:13:06.128Z,0.00
2022-10-21T05:14:06.063Z,0.00
2022-10-21T05:15:06.033Z,0.00
2022-10-21T05:16:05.994Z,0.00
2022-10-21T05:17:05.960Z,0.00
2022-10-21T05:18:05.986Z,0.00
2022-10-21T05:19:05.893Z,0.00
2022-10-21T05:20:05.866Z,0.00
2022-10-21T05:21:05.834Z,0.00
2022-10-21T05:22:05.793Z,0.00
2022-10-21T05:23:05.756Z,0.00
2022-10-21T05:24:05.796Z,0.00
2022-10-21T05:25:05.692Z,0.00
2022-10-21T05:26:05.661Z,0.00
2022-10-21T05:27:05.626Z,0.00
2022-10-21T05:28:05.625Z,0.00
2022-10-21T05:29:05.563Z,0.00
2022-10-21T05:30:05.573Z,0.00
2022-10-21T05:31:05.493Z,0.00
2022-10-21T05:32:05.509Z,0.00
2022-10-21T05:33:05.429Z,0.00
2022-10-21T05:34:05.397Z,0.00
2022-10-21T05:35:05.370Z,0.00
2022-10-21T05:36:05.376Z,0.00
2022-10-21T05:37:05.288Z,0.00
2022-10-21T05:38:05.262Z,0.00
2022-10-21T05:39:05.225Z,0.00
2022-10-21T05:40:05.191Z,0.00
2022-10-21T05:41:05.220Z,0.00
2022-10-21T05:42:05.127Z,0.00
2022-10-21T05:43:05.091Z,0.00
2022-10-21T05:44:05.076Z,0.00
2022-10-21T05:45:05.022Z,0.00
2022-10-21T05:46:05.056Z,0.00
2022-10-21T05:47:04.962Z,5.63
2022-10-21T05:48:04.933Z,5.63
2022-10-21T05:49:04.895Z,5.63
2022-10-21T05:50:04.916Z,5.63
2022-10-21T05:51:04.826Z,5.63
2022-10-21T05:52:04.871Z,5.63
2022-10-21T05:53:04.765Z,5.63
2022-10-21T05:54:04.730Z,5.63
2022-10-21T05:55:04.691Z,11.25
2022-10-21T05:56:04.754Z,11.25
2022-10-21T05:57:04.692Z,11.25
2022-10-21T05:58:04.603Z,11.25
2022-10-21T05:59:07.873Z,11.25
2022-10-21T06:00:04.525Z,16.88
2022-10-21T06:01:04.527Z,16.88
2022-10-21T06:02:04.468Z,16.88
2022-10-21T06:03:04.489Z,16.88
2022-10-21T06:04:04.397Z,16.88
2022-10-21T06:05:04.365Z,16.88
2022-10-21T06:06:04.988Z,22.50
2022-10-21T06:07:04.304Z,22.50
2022-10-21T06:08:04.259Z,28.13
2022-10-21T06:09:04.326Z,33.75
2022-10-21T06:10:04.246Z,33.75
2022-10-21T06:11:04.164Z,39.38
2022-10-21T06:12:04.131Z,39.38
2022-10-21T06:13:04.150Z,39.38
2022-10-21T06:14:04.066Z,39.38
2022-10-21T06:15:04.030Z,39.38
2022-10-21T06:17:03.968Z,39.38
2022-10-21T06:18:03.995Z,39.38
2022-10-21T06:19:03.911Z,45.00
2022-10-21T06:20:03.878Z,45.00
2022-10-21T06:21:03.833Z,45.00
2022-10-21T06:22:03.797Z,50.63
2022-10-21T06:23:03.816Z,50.63
2022-10-21T06:24:03.730Z,56.25
2022-10-21T06:25:03.738Z,61.88
2022-10-21T06:26:03.670Z,67.50
2022-10-21T06:27:03.633Z,73.13
2022-10-21T06:28:03.669Z,73.13
2022-10-21T06:29:03.571Z,78.75
2022-10-21T06:30:03.533Z,84.38
2022-10-21T06:31:03.498Z,84.38
2022-10-21T06:32:03.539Z,90.00
2022-10-21T06:33:03.463Z,84.38
2022-10-21T06:34:03.454Z,73.13
2022-10-21T06:35:03.393Z,67.50
2022-10-21T06:36:03.336Z,61.88
2022-10-21T06:37:03.354Z,61.88
2022-10-21T06:38:03.344Z,61.88
2022-10-21T06:39:03.243Z,61.88
2022-10-21T06:40:03.209Z,61.88
2022-10-21T06:41:03.287Z,56.25
2022-10-21T06:42:03.156Z,56.25
2022-10-21T06:43:03.119Z,56.25
2022-10-21T06:44:03.141Z,56.25
2022-10-21T06:45:03.096Z,50.63
2022-10-21T06:46:03.024Z,50.63
2022-10-21T06:47:02.976Z,50.63
2022-10-21T06:48:02.947Z,50.63
2022-10-21T06:49:02.918Z,56.25
2022-10-21T06:50:02.928Z,56.25
2022-10-21T06:51:02.865Z,50.63
2022-10-21T06:52:02.820Z,50.63
2022-10-21T06:53:02.853Z,45.00
2022-10-21T06:54:02.757Z,45.00
2022-10-21T06:55:02.715Z,39.38
2022-10-21T06:56:02.683Z,39.38
2022-10-21T06:57:02.650Z,39.38
2022-10-21T06:58:02.617Z,39.38
2022-10-21T06:59:02.647Z,39.38
2022-10-21T07:00:02.579Z,33.75
2022-10-21T07:01:02.554Z,33.75
2022-10-21T07:02:02.490Z,39.38
2022-10-21T07:03:02.476Z,39.38
2022-10-21T07:04:02.488Z,45.00
2022-10-21T07:05:02.383Z,50.63
2022-10-21T07:06:02.353Z,56.25
2022-10-21T07:07:02.439Z,56.25
2022-10-21T07:08:02.824Z,56.25
2022-10-21T07:09:02.314Z,50.63
2022-10-21T07:10:02.283Z,56.25
2022-10-21T07:11:02.889Z,61.88
2022-10-21T07:12:02.160Z,78.75
2022-10-21T07:13:02.216Z,95.63
2022-10-21T07:14:02.106Z,106.88
2022-10-21T07:15:02.119Z,106.88
2022-10-21T07:16:02.054Z,106.88
2022-10-21T07:17:02.004Z,112.50
2022-10-21T07:18:01.967Z,112.50
2022-10-21T07:19:01.956Z,118.13
2022-10-21T07:20:01.971Z,118.13
2022-10-21T07:21:01.867Z,123.75
2022-10-21T07:22:01.836Z,129.38
2022-10-21T07:23:01.819Z,140.63
2022-10-21T07:24:01.772Z,135.00
2022-10-21T07:26:01.766Z,140.63
2022-10-21T07:27:01.672Z,146.25
2022-10-21T07:28:01.645Z,146.25
2022-10-21T07:29:01.613Z,146.25
2022-10-21T07:30:01.581Z,157.50
2022-10-21T07:31:01.557Z,163.13
2022-10-21T07:32:01.578Z,174.38
2022-10-21T07:33:01.549Z,180.00
2022-10-21T07:34:01.540Z,180.00
2022-10-21T07:35:01.418Z,180.00
2022-10-21T07:36:01.394Z,185.63
2022-10-21T07:37:01.353Z,180.00
2022-10-21T07:38:01.372Z,185.63
2022-10-21T07:39:01.295Z,191.25
2022-10-21T07:40:01.309Z,202.50
2022-10-21T07:41:01.225Z,208.13
2022-10-21T07:42:01.195Z,219.38
2022-10-21T07:43:01.196Z,230.63
2022-10-21T07:44:01.905Z,241.88
2022-10-21T07:45:01.156Z,253.13
2022-10-21T07:46:03.195Z,264.38
2022-10-21T07:47:01.035Z,270.00
2022-10-21T07:48:01.040Z,275.63
2022-10-21T07:49:00.982Z,270.00
2022-10-21T07:50:01.029Z,258.75
2022-10-21T07:51:00.921Z,241.88
2022-10-21T07:52:00.968Z,225.00
2022-10-21T07:53:08.868Z,213.75
2022-10-21T07:54:01.510Z,202.50
2022-10-21T07:55:00.826Z,191.25
2022-10-21T07:56:00.757Z,185.63
2022-10-21T07:57:00.779Z,191.25
2022-10-21T07:58:00.717Z,196.88
2022-10-21T07:59:00.683Z,208.13
2022-10-21T08:00:00.632Z,219.38
2022-10-21T08:01:00.635Z,225.00
2022-10-21T08:02:00.567Z,230.63
2022-10-21T08:03:00.599Z,230.63
2022-10-21T08:04:00.499Z,225.00
2022-10-21T08:05:01.403Z,219.38
2022-10-21T08:06:00.446Z,213.75
2022-10-21T08:07:00.412Z,202.50
2022-10-21T08:08:00.394Z,202.50
2022-10-21T08:09:00.456Z,191.25
2022-10-21T08:10:00.312Z,185.63
2022-10-21T08:11:00.290Z,185.63
2022-10-21T08:12:00.290Z,185.63
2022-10-21T08:13:00.239Z,185.63
2022-10-21T08:14:00.194Z,196.88
2022-10-21T08:15:00.232Z,213.75
2022-10-21T08:16:00.137Z,230.63
2022-10-21T08:17:00.099Z,247.50
2022-10-21T08:18:00.067Z,264.38
2022-10-21T08:19:00.037Z,270.00
2022-10-21T08:20:00.117Z,275.63
2022-10-21T08:21:00.049Z,286.88
2022-10-21T08:21:59.948Z,298.13
2022-10-21T08:22:59.917Z,315.00
2022-10-21T08:23:59.918Z,320.63
2022-10-21T08:24:59.856Z,331.88
2022-10-21T08:25:59.868Z,343.13
2022-10-21T08:26:59.796Z,354.38
2022-10-21T08:27:59.759Z,360.00
2022-10-21T08:28:59.762Z,365.63
2022-10-21T08:29:59.709Z,365.63
2022-10-21T08:30:59.713Z,371.25
2022-10-21T08:31:59.649Z,371.25
2022-10-21T08:32:59.615Z,365.63
2022-10-21T08:33:59.573Z,360.00
2022-10-21T08:34:59.547Z,365.63
2022-10-21T08:35:59.574Z,371.25
2022-10-21T08:36:59.485Z,399.38
2022-10-21T08:37:59.486Z,421.88
2022-10-21T08:38:59.421Z,438.75
2022-10-21T08:39:59.421Z,455.63
2022-10-21T08:40:59.418Z,472.50
2022-10-21T08:41:59.353Z,478.13
2022-10-21T08:42:59.324Z,483.75
2022-10-21T08:43:59.271Z,478.13
2022-10-21T08:44:59.259Z,466.88
2022-10-21T08:45:59.258Z,444.38
2022-10-21T08:46:59.311Z,427.50
2022-10-21T08:47:59.176Z,427.50
2022-10-21T08:48:59.123Z,421.88
2022-10-21T08:49:59.140Z,410.63
2022-10-21T08:50:59.121Z,410.63
2022-10-21T08:51:59.038Z,399.38
2022-10-21T08:52:59.535Z,405.00
2022-10-21T08:53:58.974Z,410.63
2022-10-21T08:54:58.945Z,405.00
2022-10-21T08:55:58.965Z,427.50
2022-10-21T08:56:58.885Z,444.38
2022-10-21T08:57:58.867Z,461.25
2022-10-21T08:58:58.823Z,466.88
2022-10-21T08:59:58.804Z,455.63
2022-10-21T09:00:58.819Z,444.38
2022-10-21T09:01:58.733Z,427.50
2022-10-21T09:02:58.748Z,399.38
2022-10-21T09:03:58.731Z,382.50
2022-10-21T09:04:58.666Z,365.63
2022-10-21T09:06:10.057Z,371.25
2022-10-21T09:06:58.588Z,388.13
2022-10-21T09:07:58.554Z,388.13
2022-10-21T09:08:58.794Z,382.50
2022-10-21T09:09:58.493Z,382.50
2022-10-21T09:10:58.469Z,376.88
2022-10-21T09:11:58.436Z,354.38
2022-10-21T09:12:58.409Z,326.25
2022-10-21T09:13:58.377Z,303.75
2022-10-21T09:14:58.410Z,303.75
2022-10-21T09:15:58.319Z,331.88
2022-10-21T09:16:58.287Z,348.75
2022-10-21T09:17:58.265Z,354.38
2022-10-21T09:18:58.247Z,354.38
2022-10-21T09:19:58.202Z,343.13
2022-10-21T09:21:01.653Z,348.75
2022-10-21T09:22:05.834Z,343.13
2022-10-21T09:22:58.166Z,326.25
2022-10-21T09:23:58.093Z,320.63
2022-10-21T09:24:58.067Z,326.25
2022-10-21T09:25:58.038Z,343.13
2022-10-21T09:26:58.047Z,365.63
2022-10-21T09:27:58.286Z,371.25
2022-10-21T09:28:57.951Z,371.25
2022-10-21T09:29:57.931Z,371.25
2022-10-21T09:30:57.888Z,376.88
2022-10-21T09:32:02.241Z,365.63
2022-10-21T09:32:57.831Z,360.00
2022-10-21T09:33:57.793Z,360.00
2022-10-21T09:34:57.772Z,365.63
2022-10-21T09:35:57.745Z,376.88
2022-10-21T09:36:57.756Z,388.13
2022-10-21T09:37:57.727Z,376.88
2022-10-21T09:38:57.889Z,365.63
2022-10-21T09:39:57.621Z,376.88
2022-10-21T09:40:57.595Z,399.38
2022-10-21T09:41:59.372Z,438.75
2022-10-21T09:42:57.535Z,466.88
2022-10-21T09:43:57.504Z,511.88
2022-10-21T09:44:57.539Z,568.13
2022-10-21T09:45:57.446Z,562.50
2022-10-21T09:46:57.421Z,545.63
2022-10-21T09:47:57.396Z,517.50
2022-10-21T09:49:32.461Z,489.38
2022-10-21T09:50:12.760Z,466.88
2022-10-21T09:50:57.376Z,438.75
2022-10-21T09:51:57.297Z,393.75
2022-10-21T09:52:57.257Z,376.88
2022-10-21T09:53:57.224Z,382.50
2022-10-21T09:54:57.197Z,416.25
2022-10-21T09:55:57.236Z,444.38
2022-10-21T09:56:57.197Z,450.00
2022-10-21T09:58:07.513Z,455.63
2022-10-21T09:59:00.614Z,450.00
2022-10-21T09:59:57.644Z,455.63
2022-10-21T10:00:57.085Z,450.00
2022-10-21T10:01:57.077Z,455.63
2022-10-21T10:02:56.970Z,466.88
2022-10-21T10:03:56.943Z,472.50
2022-10-21T10:04:57.178Z,483.75
2022-10-21T10:05:56.889Z,495.00
2022-10-21T10:06:58.508Z,500.63
2022-10-21T10:07:56.837Z,478.13
2022-10-21T10:08:56.883Z,461.25
2022-10-21T10:09:56.827Z,433.13
2022-10-21T10:10:56.749Z,405.00
2022-10-21T10:11:56.750Z,382.50
2022-10-21T10:12:57.617Z,371.25
2022-10-21T10:13:56.671Z,371.25
2022-10-21T10:14:56.695Z,388.13
2022-10-21T10:15:56.621Z,399.38
2022-10-21T10:16:56.764Z,393.75
2022-10-21T10:17:56.551Z,365.63
2022-10-21T10:18:56.524Z,343.13
2022-10-21T10:19:56.553Z,343.13
2022-10-21T10:20:56.475Z,354.38
2022-10-21T10:21:56.479Z,360.00
2022-10-21T10:22:56.457Z,354.38
2022-10-21T10:23:56.444Z,343.13
2022-10-21T10:24:56.362Z,354.38
2022-10-21T10:25:56.360Z,365.63
2022-10-21T10:26:56.319Z,376.88
2022-10-21T10:27:56.395Z,382.50
2022-10-21T10:28:56.311Z,393.75
2022-10-21T10:29:56.278Z,399.38
2022-10-21T10:30:56.261Z,393.75
2022-10-21T10:31:56.177Z,382.50
2022-10-21T10:32:56.139Z,360.00
2022-10-21T10:33:58.851Z,326.25
2022-10-21T10:34:56.108Z,309.38
2022-10-21T10:35:56.130Z,309.38
2022-10-21T10:36:56.029Z,303.75
2022-10-21T10:37:56.014Z,315.00
2022-10-21T10:38:55.975Z,309.38
2022-10-21T10:39:56.018Z,320.63
2022-10-21T10:40:58.491Z,315.00
2022-10-21T10:41:56.025Z,315.00
2022-10-21T10:42:55.866Z,315.00
2022-10-21T10:43:55.837Z,320.63
2022-10-21T10:44:55.812Z,326.25
2022-10-21T10:45:55.844Z,326.25
2022-10-21T10:46:55.860Z,331.88
2022-10-21T10:47:55.724Z,354.38
2022-10-21T10:48:55.716Z,365.63
2022-10-21T10:49:55.668Z,376.88
2022-10-21T10:50:55.639Z,399.38
2022-10-21T10:51:55.655Z,410.63
2022-10-21T10:52:55.632Z,427.50
2022-10-21T10:53:55.554Z,438.75
2022-10-21T10:54:55.531Z,444.38
2022-10-21T10:55:55.570Z,444.38
2022-10-21T10:56:55.470Z,450.00
2022-10-21T10:58:06.437Z,455.63
2022-10-21T10:58:55.452Z,450.00
2022-10-21T10:59:55.391Z,450.00
2022-10-21T11:00:55.396Z,438.75
2022-10-21T11:01:55.328Z,416.25
2022-10-21T11:02:55.303Z,393.75
2022-10-21T11:03:55.335Z,382.50
2022-10-21T11:04:55.257Z,360.00
2022-10-21T11:05:55.221Z,343.13
2022-10-21T11:06:55.194Z,320.63
2022-10-21T11:07:55.172Z,303.75
2022-10-21T11:08:55.198Z,292.50
2022-10-21T11:09:55.182Z,286.88
2022-10-21T11:10:55.090Z,286.88
2022-10-21T11:11:55.217Z,286.88
2022-10-21T11:12:55.043Z,281.25
2022-10-21T11:13:55.025Z,275.63
2022-10-21T11:14:54.967Z,275.63
2022-10-21T11:15:54.996Z,275.63
2022-10-21T11:17:00.548Z,264.38
2022-10-21T11:17:54.892Z,264.38
2022-10-21T11:18:54.867Z,286.88
2022-10-21T11:19:54.832Z,292.50
2022-10-21T11:20:54.866Z,286.88
2022-10-21T11:21:54.841Z,286.88
2022-10-21T11:22:54.909Z,303.75
2022-10-21T11:23:57.699Z,309.38
2022-10-21T11:24:54.691Z,320.63
2022-10-21T11:25:54.668Z,326.25
2022-10-21T11:26:54.639Z,326.25
2022-10-21T11:27:54.690Z,326.25
2022-10-21T11:28:54.648Z,343.13
2022-10-21T11:29:54.560Z,326.25
2022-10-21T11:30:54.526Z,309.38
2022-10-21T11:32:10.619Z,298.13
2022-10-21T11:32:54.468Z,286.88
2022-10-21T11:33:54.470Z,298.13
2022-10-21T11:34:54.457Z,303.75
2022-10-21T11:35:57.726Z,286.88
2022-10-21T11:36:54.353Z,275.63
2022-10-21T11:37:54.327Z,270.00
2022-10-21T11:38:54.377Z,292.50
2022-10-21T11:39:54.267Z,315.00
2022-10-21T11:40:54.242Z,315.00
2022-10-21T11:41:54.220Z,303.75
2022-10-21T11:42:54.248Z,286.88
2022-10-21T11:43:54.242Z,281.25
2022-10-21T11:44:54.191Z,281.25
2022-10-21T11:45:54.104Z,292.50
2022-10-21T11:46:54.072Z,309.38
2022-10-21T11:47:55.044Z,331.88
2022-10-21T11:48:54.026Z,354.38
2022-10-21T11:49:53.993Z,371.25
2022-10-21T11:50:54.028Z,371.25
2022-10-21T11:51:53.935Z,365.63
2022-10-21T11:52:53.919Z,354.38
2022-10-21T11:53:54.030Z,337.50
2022-10-21T11:55:08.960Z,326.25
2022-10-21T11:55:53.823Z,315.00
2022-10-21T11:56:53.860Z,298.13
2022-10-21T11:57:53.788Z,286.88
2022-10-21T11:58:53.737Z,275.63
2022-10-21T11:59:56.542Z,264.38
2022-10-21T12:00:53.689Z,253.13
2022-10-21T12:01:53.700Z,247.50
2022-10-21T12:02:53.728Z,241.88
2022-10-21T12:03:53.875Z,247.50
2022-10-21T12:04:53.568Z,247.50
2022-10-21T12:05:53.543Z,241.88
2022-10-21T12:06:53.521Z,241.88
2022-10-21T12:07:53.484Z,241.88
2022-10-21T12:08:53.522Z,241.88
2022-10-21T12:09:53.434Z,241.88
2022-10-21T12:10:53.399Z,241.88
2022-10-21T12:11:53.374Z,241.88
2022-10-21T12:12:53.345Z,241.88
2022-10-21T12:13:53.316Z,236.25
2022-10-21T12:14:53.378Z,241.88
2022-10-21T12:15:53.327Z,236.25
2022-10-21T12:16:53.229Z,230.63
2022-10-21T12:17:53.203Z,230.63
2022-10-21T12:18:53.170Z,230.63
2022-10-21T12:19:53.145Z,236.25
2022-10-21T12:20:53.171Z,247.50
2022-10-21T12:21:53.090Z,258.75
2022-10-21T12:22:53.060Z,270.00
2022-10-21T12:23:53.292Z,281.25
2022-10-21T12:24:52.999Z,292.50
2022-10-21T12:25:53.553Z,303.75
2022-10-21T12:26:52.943Z,315.00
2022-10-21T12:27:52.931Z,320.63
2022-10-21T12:28:52.894Z,320.63
2022-10-21T12:29:52.869Z,331.88
2022-10-21T12:30:52.834Z,331.88
2022-10-21T12:31:52.940Z,337.50
2022-10-21T12:32:52.773Z,343.13
2022-10-21T12:33:52.748Z,343.13
2022-10-21T12:34:52.717Z,343.13
2022-10-21T12:35:52.690Z,348.75
2022-10-21T12:36:52.779Z,343.13
2022-10-21T12:37:52.718Z,343.13
2022-10-21T12:38:52.603Z,348.75
2022-10-21T12:39:52.576Z,343.13
2022-10-21T12:40:52.562Z,343.13
2022-10-21T12:41:52.516Z,343.13
2022-10-21T12:42:52.491Z,343.13
2022-10-21T12:43:52.521Z,337.50
2022-10-21T12:44:52.521Z,337.50
2022-10-21T12:45:52.407Z,326.25
2022-10-21T12:46:52.380Z,320.63
2022-10-21T12:47:52.350Z,315.00
2022-10-21T12:48:52.327Z,303.75
2022-10-21T12:49:52.355Z,292.50
2022-10-21T12:50:55.071Z,286.88
2022-10-21T12:51:52.236Z,286.88
2022-10-21T12:52:52.205Z,281.25
2022-10-21T12:54:52.153Z,275.63
2022-10-21T12:55:52.170Z,275.63
2022-10-21T12:56:52.098Z,275.63